x

East Scotia Slope (44137) Wave Buoy

9:00pm - Wed 24th Aug 2016 All times are EDT. -4 hours from GMT.

  • Sig Wave height 2.6ft
  • Peak Period 10s
  • Wind
    11mph
  • Sea Temp 70°f
  • Air Temp 71°f
  • Sea Pressure 1023.7mb
  • East Scotia Slope
  • East Scotia Slope

More Historic Weather Station data

Upgrade to MSW Pro to gain access to the past 30 days of data for over 8000 Wavebouys and Weather Stations around the globe.

Join Pro

Comparision Forecast

View Surf forecast
   
Wed 08/24 9:00pm 2.5ft 10s 11
mph
1023.7mb 70f 71f
8:00pm 2.5ft 8s 9
mph
1023.8mb 70f 71f
7:00pm 2.5ft 10s 9
mph
1023.4mb 70f 71f
6:00pm 2.5ft 7s 9 11 mph 1023.3mb 70f 71f
5:00pm 3ft 7s 11 13 mph 1023.4mb 70f 71f
4:00pm 3ft 8s 11 16 mph 1023.2mb 70f 71f
3:00pm 3.5ft 8s 11 13 mph 1023.6mb 70f 70f
2:00pm 3.5ft 7s 11 13 mph 1024.3mb 70f 69f
1:00pm 3ft 8s 9 11 mph 1024.8mb 70f 69f
12:00pm 3.5ft 8s 11
mph
1024.8mb 70f 69f
11:00am 3.5ft 7s 13 16 mph 1024.8mb 70f 69f
10:00am 3.5ft 7s 11 13 mph 1024.9mb 70f 69f
9:00am 3.5ft 7s 9 11 mph 1025mb 69f 69f
8:00am 3.5ft 6s 7 9 mph 1024.5mb 69f 69f
7:00am 3.5ft 6s 9
mph
1024.3mb 69f 69f
6:00am 3.5ft 7s 9
mph
1024.3mb 69f 68f
5:00am 3.5ft 6s 9 11 mph 1024mb 69f 68f
4:00am 3.5ft 5s 9 11 mph 1023.6mb 69f 68f
3:00am 3.5ft 6s 11 13 mph 1023.4mb 70f 68f
2:00am 3.5ft 8s 11 13 mph 1023.4mb 70f 68f
1:00am 3.5ft 8s 11 13 mph 1023.3mb 70f 68f
12:00am 4ft 6s 13 18 mph 1023.3mb 70f 68f
Tue 08/23 11:00pm 4.5ft 7s 13 16 mph 1023.1mb 70f 68f
10:00pm 5ft 7s 13 16 mph 1022.9mb 70f 69f
9:00pm 6ft 6s 16 18 mph 1022.8mb 70f 68f
8:00pm 5ft 6s 16 20 mph 1022.2mb 70f 69f
7:00pm 5.5ft 6s 16 18 mph 1021.5mb 70f 68f
6:00pm 6ft 7s 20 22 mph 1021mb 70f 68f
5:00pm 6ft 7s 20 25 mph 1020.3mb 70f 68f
4:00pm 6ft 7s 20 25 mph 1020.4mb 70f 68f
3:00pm 6ft 7s 18 22 mph 1020.4mb 71f 68f
2:00pm 5.5ft 7s 18 22 mph 1020.2mb 71f 67f
1:00pm 5.5ft 7s 20 25 mph 1020.1mb 70f 67f
12:00pm 5ft 7s 18 22 mph 1020mb 70f 67f
11:00am 5.5ft 7s 20 25 mph 1019.8mb 70f 67f
10:00am 6ft 6s 16 22 mph 1019.1mb 70f 67f
9:00am 6ft 6s 18 22 mph 1018.4mb 70f 67f
8:00am 6.5ft 6s 20 25 mph 1017.6mb 70f 67f
7:00am 6ft 6s 20 27 mph 1016.9mb 70f 67f
6:00am  -   -  22
mph
1016mb - 67f
5:00am 6ft 5s 20 25 mph 1015.1mb 70f 68f
4:00am 5.5ft 5s 18 20 mph 1014.3mb 70f 68f
3:00am 5.5ft 8s 20 25 mph 1013.7mb 70f 69f
2:00am 6ft 9s 25 29 mph 1013.2mb 70f 69f
1:00am 6ft 9s 20 25 mph 1012.5mb 71f 68f
12:00am 6ft 9s 18 22 mph 1012mb 71f 71f
Mon 08/22 11:00pm 6.5ft 8s 9
mph
1011.5mb 71f 73f
10:00pm 7ft 9s 13 18 mph 1011.1mb 71f 74f
9:00pm 7ft 8s 13 16 mph 1010.5mb 71f 74f
8:00pm 6ft 8s 11 13 mph 1010mb 71f 74f
7:00pm 6ft 8s 9 11 mph 1009.9mb 71f 74f
6:00pm 5ft 7s 11 13 mph 1009.8mb 72f 74f
5:00pm 5ft 8s 11 13 mph 1010.3mb 72f 74f
4:00pm 5ft 8s 9
mph
1010.7mb 72f 74f
3:00pm 5.5ft 7s 7 9 mph 1011.4mb 71f 74f
2:00pm 6ft 8s 7 9 mph 1011.6mb 71f 74f
1:00pm 6ft 8s 9 11 mph 1011.8mb 71f 74f
12:00pm 5.5ft 8s 9 11 mph 1012mb 71f 73f
11:00am 5.5ft 10s 13 16 mph 1012mb 71f 73f
10:00am 6ft 8s 18 22 mph 1011.9mb 70f 74f
9:00am 5.5ft 7s 16 18 mph 1011.8mb 70f 74f
8:00am 5.5ft 7s 9 11 mph 1012.1mb 70f 73f
7:00am 5ft 7s 18 22 mph 1012.4mb 70f 73f
6:00am 4.5ft 10s 16 20 mph 1012.5mb 70f 73f
5:00am 4ft 10s 13 16 mph 1012.8mb 70f 73f
4:00am 4.5ft 10s 11 13 mph 1013.5mb 70f 72f
3:00am 4ft 9s 11 13 mph 1013.8mb 70f 72f
2:00am 4ft 10s 16 18 mph 1014.4mb 70f 72f
1:00am 4ft 10s 16 18 mph 1015.5mb 70f 73f
12:00am 4.5ft 9s 11 13 mph 1016mb 70f 73f
Sun 08/21 11:00pm 4.5ft 10s 13 16 mph 1016.4mb 71f 73f
10:00pm 4.5ft 10s 13 16 mph 1017.2mb 71f 72f
9:00pm 4ft 9s 11 13 mph 1017.4mb 71f 73f
8:00pm 3.5ft 10s 9 11 mph 1017.3mb 71f 72f
7:00pm 3.5ft 10s 9
mph
1017.5mb 71f 72f
6:00pm 3.5ft 10s 7
mph
1017.9mb 72f 72f
5:00pm 3.5ft 10s 7
mph
1018.5mb 72f 73f
4:00pm 3ft 9s 7
mph
1018.6mb 72f 73f
3:00pm 3ft 10s 4 7 mph 1018.6mb 72f 72f
2:00pm 3.5ft 9s 7
mph
1018.8mb 72f 72f
1:00pm 3ft 9s 7 9 mph 1018.8mb 71f 71f
12:00pm 3.5ft 10s 9
mph
1018.9mb 71f 71f
11:00am 3.5ft 10s 9 11 mph 1019.2mb 70f 70f
10:00am 3.5ft 10s 11 13 mph 1019.4mb 70f 70f
9:00am 3.5ft 10s 13 16 mph 1019.3mb 70f 70f
8:00am 3.5ft 10s 11 13 mph 1019.2mb 69f 70f
7:00am 3ft 8s 9 11 mph 1018.9mb 69f 70f
6:00am 3ft 8s 9 11 mph 1018.7mb 70f 70f
5:00am 2.5ft 8s 9 11 mph 1018.6mb 70f 69f
4:00am 2.5ft 9s 9 11 mph 1018.5mb 70f 70f
3:00am 2.5ft 7s 9
mph
1018.6mb 70f 70f